sensor_id;sensor_type;location;lat;lon;timestamp;pressure;altitude;pressure_sealevel;temperature;humidity
72157;BME280;60035;52.122;5.406;2023-01-15T00:00:17;99963.94;;;6.69;90.33
72157;BME280;60035;52.122;5.406;2023-01-15T00:02:44;99971.56;;;6.69;89.82
72157;BME280;60035;52.122;5.406;2023-01-15T00:05:10;99974.06;;;6.70;90.08
72157;BME280;60035;52.122;5.406;2023-01-15T00:07:37;99979.94;;;6.72;89.19
72157;BME280;60035;52.122;5.406;2023-01-15T00:10:04;99971.50;;;6.70;89.70
72157;BME280;60035;52.122;5.406;2023-01-15T00:12:30;99975.84;;;6.66;89.75
72157;BME280;60035;52.122;5.406;2023-01-15T00:14:57;99982.56;;;6.69;89.47
72157;BME280;60035;52.122;5.406;2023-01-15T00:17:23;99979.19;;;6.69;89.52
72157;BME280;60035;52.122;5.406;2023-01-15T00:19:50;99980.13;;;6.66;89.51
72157;BME280;60035;52.122;5.406;2023-01-15T00:22:16;99977.66;;;6.63;89.91
72157;BME280;60035;52.122;5.406;2023-01-15T00:24:43;99981.94;;;6.61;90.54
72157;BME280;60035;52.122;5.406;2023-01-15T00:27:28;99977.78;;;6.58;90.70
72157;BME280;60035;52.122;5.406;2023-01-15T00:30:09;99971.91;;;6.55;91.17
72157;BME280;60035;52.122;5.406;2023-01-15T00:32:37;99967.75;;;6.52;91.30
72157;BME280;60035;52.122;5.406;2023-01-15T00:35:04;99972.84;;;6.52;91.18
72157;BME280;60035;52.122;5.406;2023-01-15T00:37:31;99974.50;;;6.53;91.12
72157;BME280;60035;52.122;5.406;2023-01-15T00:39:57;99966.97;;;6.50;91.46
72157;BME280;60035;52.122;5.406;2023-01-15T00:42:24;99966.97;;;6.50;91.13
72157;BME280;60035;52.122;5.406;2023-01-15T00:44:50;99972.94;;;6.49;91.36
72157;BME280;60035;52.122;5.406;2023-01-15T00:47:16;99975.44;;;6.50;91.78
72157;BME280;60035;52.122;5.406;2023-01-15T00:49:43;99970.34;;;6.50;91.66
72157;BME280;60035;52.122;5.406;2023-01-15T00:52:10;99966.09;;;6.51;91.69
72157;BME280;60035;52.122;5.406;2023-01-15T00:54:37;99968.59;;;6.53;91.82
72157;BME280;60035;52.122;5.406;2023-01-15T00:57:03;99972.88;;;6.50;91.96
72157;BME280;60035;52.122;5.406;2023-01-15T00:59:30;99970.34;;;6.50;91.91
72157;BME280;60035;52.122;5.406;2023-01-15T01:01:56;99967.84;;;6.49;92.42
72157;BME280;60035;52.122;5.406;2023-01-15T01:04:23;99972.16;;;6.47;92.77
72157;BME280;60035;52.122;5.406;2023-01-15T01:06:49;99971.31;;;6.46;92.52
72157;BME280;60035;52.122;5.406;2023-01-15T01:09:16;99978.06;;;6.47;92.57
72157;BME280;60035;52.122;5.406;2023-01-15T01:11:43;99977.25;;;6.47;92.51
72157;BME280;60035;52.122;5.406;2023-01-15T01:14:11;99961.94;;;6.48;92.42
72157;BME280;60035;52.122;5.406;2023-01-15T01:16:39;99968.72;;;6.48;92.43
72157;BME280;60035;52.122;5.406;2023-01-15T01:19:10;99967.88;;;6.47;92.07
72157;BME280;60035;52.122;5.406;2023-01-15T01:21:38;99970.44;;;6.47;91.98
72157;BME280;60035;52.122;5.406;2023-01-15T01:24:05;99973.03;;;6.46;91.90
72157;BME280;60035;52.122;5.406;2023-01-15T01:26:33;99972.22;;;6.44;91.94
72157;BME280;60035;52.122;5.406;2023-01-15T01:29:00;99979.84;;;6.44;91.92
72157;BME280;60035;52.122;5.406;2023-01-15T01:31:27;99980.69;;;6.44;91.65
72157;BME280;60035;52.122;5.406;2023-01-15T01:33:55;99979.03;;;6.43;91.45
72157;BME280;60035;52.122;5.406;2023-01-15T01:36:32;99985.84;;;6.41;91.37
72157;BME280;60035;52.122;5.406;2023-01-15T01:38:59;99971.34;;;6.45;91.23
72157;BME280;60035;52.122;5.406;2023-01-15T01:41:27;99990.88;;;6.43;91.29
72157;BME280;60035;52.122;5.406;2023-01-15T01:46:20;99986.69;;;6.42;91.13
72157;BME280;60035;52.122;5.406;2023-01-15T01:48:50;99989.25;;;6.42;90.76
72157;BME280;60035;52.122;5.406;2023-01-15T01:51:19;100001.06;;;6.43;90.80
72157;BME280;60035;52.122;5.406;2023-01-15T01:53:47;100003.66;;;6.41;90.95
72157;BME280;60035;52.122;5.406;2023-01-15T01:56:14;99999.41;;;6.42;90.48
72157;BME280;60035;52.122;5.406;2023-01-15T01:58:45;100000.31;;;6.39;90.72
72157;BME280;60035;52.122;5.406;2023-01-15T02:01:12;100000.34;;;6.38;90.20
72157;BME280;60035;52.122;5.406;2023-01-15T02:03:39;99997.78;;;6.39;89.97
72157;BME280;60035;52.122;5.406;2023-01-15T02:06:08;99989.34;;;6.37;90.14
72157;BME280;60035;52.122;5.406;2023-01-15T02:08:36;99987.72;;;6.34;90.32
72157;BME280;60035;52.122;5.406;2023-01-15T02:11:05;99985.25;;;6.31;90.24
72157;BME280;60035;52.122;5.406;2023-01-15T02:13:37;99988.72;;;6.29;90.32
72157;BME280;60035;52.122;5.406;2023-01-15T02:17:10;99987.00;;;6.29;90.49
72157;BME280;60035;52.122;5.406;2023-01-15T02:19:40;99980.22;;;6.28;89.95
72157;BME280;60035;52.122;5.406;2023-01-15T02:22:22;99979.41;;;6.28;89.49
72157;BME280;60035;52.122;5.406;2023-01-15T02:27:55;99970.06;;;6.28;89.29
72157;BME280;60035;52.122;5.406;2023-01-15T02:30:33;99977.69;;;6.28;88.57
72157;BME280;60035;52.122;5.406;2023-01-15T02:33:06;99984.41;;;6.31;87.98
72157;BME280;60035;52.122;5.406;2023-01-15T02:35:59;99986.13;;;6.30;88.34
72157;BME280;60035;52.122;5.406;2023-01-15T02:38:29;99973.50;;;6.27;88.33
72157;BME280;60035;52.122;5.406;2023-01-15T02:41:00;99988.81;;;6.24;88.33
72157;BME280;60035;52.122;5.406;2023-01-15T02:43:32;99982.94;;;6.22;88.14
72157;BME280;60035;52.122;5.406;2023-01-15T02:46:01;99986.31;;;6.23;88.16
72157;BME280;60035;52.122;5.406;2023-01-15T02:48:30;99985.38;;;6.27;87.41
72157;BME280;60035;52.122;5.406;2023-01-15T02:51:07;99974.41;;;6.25;87.67
72157;BME280;60035;52.122;5.406;2023-01-15T02:53:37;99985.53;;;6.21;87.58
72157;BME280;60035;52.122;5.406;2023-01-15T02:56:16;99974.47;;;6.22;87.42
72157;BME280;60035;52.122;5.406;2023-01-15T02:58:46;99976.25;;;6.20;87.44
72157;BME280;60035;52.122;5.406;2023-01-15T03:01:20;99972.97;;;6.14;87.25
72157;BME280;60035;52.122;5.406;2023-01-15T03:04:11;99967.09;;;6.12;87.72
72157;BME280;60035;52.122;5.406;2023-01-15T03:06:51;99975.56;;;6.13;87.56
72157;BME280;60035;52.122;5.406;2023-01-15T03:09:22;99964.53;;;6.12;87.40
72157;BME280;60035;52.122;5.406;2023-01-15T03:14:55;99966.22;;;6.13;87.52
72157;BME280;60035;52.122;5.406;2023-01-15T03:17:47;99961.94;;;6.15;87.66
72157;BME280;60035;52.122;5.406;2023-01-15T03:20:26;99968.69;;;6.16;87.18
72157;BME280;60035;52.122;5.406;2023-01-15T03:22:58;99975.50;;;6.14;87.73
72157;BME280;60035;52.122;5.406;2023-01-15T03:25:40;99976.38;;;6.13;87.27
72157;BME280;60035;52.122;5.406;2023-01-15T03:28:10;99969.63;;;6.12;87.57
72157;BME280;60035;52.122;5.406;2023-01-15T03:30:37;99968.72;;;6.15;87.54
72157;BME280;60035;52.122;5.406;2023-01-15T03:33:04;99970.34;;;6.17;86.78
72157;BME280;60035;52.122;5.406;2023-01-15T03:35:50;99970.44;;;6.14;86.95
72157;BME280;60035;52.122;5.406;2023-01-15T03:38:33;99970.47;;;6.13;87.06
72157;BME280;60035;52.122;5.406;2023-01-15T03:50:06;99967.41;;;6.00;86.61
72157;BME280;60035;52.122;5.406;2023-01-15T03:55:22;99967.47;;;5.97;86.57
72157;BME280;60035;52.122;5.406;2023-01-15T03:58:12;99963.28;;;5.94;86.63
72157;BME280;60035;52.122;5.406;2023-01-15T04:00:59;99957.38;;;5.92;86.84
72157;BME280;60035;52.122;5.406;2023-01-15T04:03:29;99963.31;;;5.93;86.91
72157;BME280;60035;52.122;5.406;2023-01-15T04:05:58;99964.16;;;5.93;87.10
72157;BME280;60035;52.122;5.406;2023-01-15T04:08:29;99961.56;;;5.95;87.14
72157;BME280;60035;52.122;5.406;2023-01-15T04:10:59;99954.81;;;5.94;87.38
72157;BME280;60035;52.122;5.406;2023-01-15T04:13:26;99959.84;;;5.97;86.71
72157;BME280;60035;52.122;5.406;2023-01-15T04:15:56;99955.63;;;5.96;87.13
72157;BME280;60035;52.122;5.406;2023-01-15T04:18:23;99951.41;;;5.95;87.01
72157;BME280;60035;52.122;5.406;2023-01-15T04:20:50;99952.25;;;5.94;86.80
72157;BME280;60035;52.122;5.406;2023-01-15T04:23:16;99960.78;;;5.93;87.10
72157;BME280;60035;52.122;5.406;2023-01-15T04:25:43;99954.03;;;5.92;87.05
72157;BME280;60035;52.122;5.406;2023-01-15T04:28:09;99954.78;;;5.95;86.62
72157;BME280;60035;52.122;5.406;2023-01-15T04:30:36;99961.50;;;5.99;86.64
72157;BME280;60035;52.122;5.406;2023-01-15T04:33:04;99957.28;;;5.97;86.77
72157;BME280;60035;52.122;5.406;2023-01-15T04:35:30;99952.25;;;5.95;86.74
72157;BME280;60035;52.122;5.406;2023-01-15T04:37:58;99947.16;;;5.95;86.81
72157;BME280;60035;52.122;5.406;2023-01-15T04:40:25;99942.94;;;5.94;86.88
72157;BME280;60035;52.122;5.406;2023-01-15T04:43:12;99953.97;;;5.93;86.87
72157;BME280;60035;52.122;5.406;2023-01-15T04:46:05;99949.81;;;5.91;86.94
72157;BME280;60035;52.122;5.406;2023-01-15T04:48:32;99944.69;;;5.92;86.57
72157;BME280;60035;52.122;5.406;2023-01-15T04:51:03;99953.22;;;5.90;86.65
72157;BME280;60035;52.122;5.406;2023-01-15T04:53:30;99953.25;;;5.88;86.74
72157;BME280;60035;52.122;5.406;2023-01-15T04:55:59;99949.09;;;5.86;86.95
72157;BME280;60035;52.122;5.406;2023-01-15T04:58:27;99950.81;;;5.85;86.65
72157;BME280;60035;52.122;5.406;2023-01-15T05:00:53;99956.75;;;5.84;86.39
72157;BME280;60035;52.122;5.406;2023-01-15T05:03:20;99954.28;;;5.81;86.90
72157;BME280;60035;52.122;5.406;2023-01-15T05:05:46;99960.25;;;5.80;86.75
72157;BME280;60035;52.122;5.406;2023-01-15T05:08:12;99959.38;;;5.81;86.39
72157;BME280;60035;52.122;5.406;2023-01-15T05:10:39;99962.69;;;5.83;86.46
72157;BME280;60035;52.122;5.406;2023-01-15T05:13:05;99961.03;;;5.82;86.36
72157;BME280;60035;52.122;5.406;2023-01-15T05:15:32;99961.03;;;5.82;86.30
72157;BME280;60035;52.122;5.406;2023-01-15T05:17:58;99956.78;;;5.82;86.56
72157;BME280;60035;52.122;5.406;2023-01-15T05:20:25;99955.13;;;5.81;86.95
72157;BME280;60035;52.122;5.406;2023-01-15T05:22:51;99944.97;;;5.81;87.26
72157;BME280;60035;52.122;5.406;2023-01-15T05:25:18;99933.06;;;5.82;87.13
72157;BME280;60035;52.122;5.406;2023-01-15T05:27:44;99944.06;;;5.84;87.06
72157;BME280;60035;52.122;5.406;2023-01-15T05:30:11;99939.00;;;5.82;87.45
72157;BME280;60035;52.122;5.406;2023-01-15T05:32:38;99945.88;;;5.79;87.46
72157;BME280;60035;52.122;5.406;2023-01-15T05:35:04;99940.81;;;5.77;87.73
72157;BME280;60035;52.122;5.406;2023-01-15T05:37:31;99940.88;;;5.76;87.65
72157;BME280;60035;52.122;5.406;2023-01-15T05:39:58;99938.38;;;5.74;87.84
72157;BME280;60035;52.122;5.406;2023-01-15T05:42:24;99929.13;;;5.72;87.68
72157;BME280;60035;52.122;5.406;2023-01-15T05:44:50;99937.59;;;5.71;87.89
72157;BME280;60035;52.122;5.406;2023-01-15T05:47:17;99942.72;;;5.69;88.05
72157;BME280;60035;52.122;5.406;2023-01-15T05:49:44;99930.03;;;5.69;88.03
72157;BME280;60035;52.122;5.406;2023-01-15T05:52:10;99941.09;;;5.66;87.80
72157;BME280;60035;52.122;5.406;2023-01-15T05:54:37;99931.84;;;5.64;87.91
72157;BME280;60035;52.122;5.406;2023-01-15T05:57:03;99938.66;;;5.62;87.92
72157;BME280;60035;52.122;5.406;2023-01-15T05:59:31;99949.66;;;5.62;88.10
72157;BME280;60035;52.122;5.406;2023-01-15T06:01:58;99941.25;;;5.59;87.99
72157;BME280;60035;52.122;5.406;2023-01-15T06:04:24;99947.22;;;5.58;88.00
72157;BME280;60035;52.122;5.406;2023-01-15T06:06:53;99948.81;;;5.62;87.52
72157;BME280;60035;52.122;5.406;2023-01-15T06:09:20;99953.06;;;5.61;88.00
72157;BME280;60035;52.122;5.406;2023-01-15T06:11:48;99947.13;;;5.62;87.67
72157;BME280;60035;52.122;5.406;2023-01-15T06:14:15;99941.25;;;5.59;87.87
72157;BME280;60035;52.122;5.406;2023-01-15T06:16:42;99947.22;;;5.58;88.12
72157;BME280;60035;52.122;5.406;2023-01-15T06:19:10;99946.44;;;5.54;88.54
72157;BME280;60035;52.122;5.406;2023-01-15T06:21:36;99952.41;;;5.51;88.78
72157;BME280;60035;52.122;5.406;2023-01-15T06:24:03;99963.56;;;5.46;88.66
72157;BME280;60035;52.122;5.406;2023-01-15T06:26:30;99959.47;;;5.40;88.55
72157;BME280;60035;52.122;5.406;2023-01-15T06:28:57;99973.13;;;5.33;89.57
72157;BME280;60035;52.122;5.406;2023-01-15T06:31:24;99983.44;;;5.27;88.84
72157;BME280;60035;52.122;5.406;2023-01-15T06:33:54;99981.84;;;5.21;88.41
72157;BME280;60035;52.122;5.406;2023-01-15T06:36:26;99980.28;;;5.15;87.14
72157;BME280;60035;52.122;5.406;2023-01-15T06:38:53;99982.91;;;5.12;86.55
72157;BME280;60035;52.122;5.406;2023-01-15T06:41:22;99972.88;;;5.06;87.12
72157;BME280;60035;52.122;5.406;2023-01-15T06:44:15;99973.09;;;4.95;87.74
72157;BME280;60035;52.122;5.406;2023-01-15T06:47:08;99969.00;;;4.88;87.69
72157;BME280;60035;52.122;5.406;2023-01-15T06:49:47;99968.25;;;4.84;87.95
72157;BME280;60035;52.122;5.406;2023-01-15T06:52:14;99970.00;;;4.81;87.98
72157;BME280;60035;52.122;5.406;2023-01-15T06:54:41;99973.47;;;4.77;88.08
72157;BME280;60035;52.122;5.406;2023-01-15T06:57:07;99965.97;;;4.71;88.40
72157;BME280;60035;52.122;5.406;2023-01-15T06:59:34;99963.53;;;4.66;88.69
72157;BME280;60035;52.122;5.406;2023-01-15T07:02:00;99967.00;;;4.60;89.12
72157;BME280;60035;52.122;5.406;2023-01-15T07:04:27;99967.09;;;4.56;89.63
72157;BME280;60035;52.122;5.406;2023-01-15T07:06:54;99964.66;;;4.53;90.47
72157;BME280;60035;52.122;5.406;2023-01-15T07:09:20;99966.28;;;4.54;90.55
72157;BME280;60035;52.122;5.406;2023-01-15T07:11:47;99968.00;;;4.53;91.00
72157;BME280;60035;52.122;5.406;2023-01-15T07:14:21;99964.66;;;4.53;90.96
72157;BME280;60035;52.122;5.406;2023-01-15T07:16:48;99977.31;;;4.51;91.19
72157;BME280;60035;52.122;5.406;2023-01-15T07:19:16;99974.78;;;4.51;91.10
72157;BME280;60035;52.122;5.406;2023-01-15T07:21:43;99968.06;;;4.48;91.18
72157;BME280;60035;52.122;5.406;2023-01-15T07:24:10;99963.84;;;4.49;91.11
72157;BME280;60035;52.122;5.406;2023-01-15T07:26:37;99971.47;;;4.49;90.76
72157;BME280;60035;52.122;5.406;2023-01-15T07:29:04;99978.22;;;4.50;90.47
72157;BME280;60035;52.122;5.406;2023-01-15T07:31:31;99980.75;;;4.48;90.42
72157;BME280;60035;52.122;5.406;2023-01-15T07:33:57;99974.00;;;4.49;90.10
72157;BME280;60035;52.122;5.406;2023-01-15T07:36:24;99969.75;;;4.49;89.70
72157;BME280;60035;52.122;5.406;2023-01-15T07:38:51;99973.09;;;4.52;89.47
72157;BME280;60035;52.122;5.406;2023-01-15T07:41:17;99968.06;;;4.50;89.50
72157;BME280;60035;52.122;5.406;2023-01-15T07:44:02;99971.50;;;4.47;89.57
72157;BME280;60035;52.122;5.406;2023-01-15T07:46:47;99979.03;;;4.50;88.91
72157;BME280;60035;52.122;5.406;2023-01-15T07:49:32;99971.34;;;4.55;88.44
72157;BME280;60035;52.122;5.406;2023-01-15T07:52:12;99967.09;;;4.56;88.48
72157;BME280;60035;52.122;5.406;2023-01-15T07:54:38;99964.56;;;4.56;88.01
72157;BME280;60035;52.122;5.406;2023-01-15T07:57:05;99968.81;;;4.55;88.12
72157;BME280;60035;52.122;5.406;2023-01-15T07:59:32;99959.50;;;4.56;87.27
72157;BME280;60035;52.122;5.406;2023-01-15T08:01:59;99962.03;;;4.56;86.99
72157;BME280;60035;52.122;5.406;2023-01-15T08:04:25;99952.72;;;4.58;86.71
72157;BME280;60035;52.122;5.406;2023-01-15T08:06:52;99960.28;;;4.59;86.18
72157;BME280;60035;52.122;5.406;2023-01-15T08:09:18;99955.97;;;4.63;86.13
72157;BME280;60035;52.122;5.406;2023-01-15T08:11:45;99954.31;;;4.62;86.07
72157;BME280;60035;52.122;5.406;2023-01-15T08:14:30;99964.44;;;4.63;86.08
72157;BME280;60035;52.122;5.406;2023-01-15T08:17:14;99965.25;;;4.64;85.89
72157;BME280;60035;52.122;5.406;2023-01-15T08:19:41;99964.44;;;4.63;86.17
72157;BME280;60035;52.122;5.406;2023-01-15T08:22:09;99964.47;;;4.62;86.59
72157;BME280;60035;52.122;5.406;2023-01-15T08:24:35;99972.88;;;4.64;86.10
72157;BME280;60035;52.122;5.406;2023-01-15T08:27:02;99972.00;;;4.65;86.29
72157;BME280;60035;52.122;5.406;2023-01-15T08:29:29;99976.16;;;4.69;85.97
72157;BME280;60035;52.122;5.406;2023-01-15T08:31:55;99952.38;;;4.75;85.84
72157;BME280;60035;52.122;5.406;2023-01-15T08:34:22;99966.66;;;4.80;85.69
72157;BME280;60035;52.122;5.406;2023-01-15T08:36:49;99964.03;;;4.83;85.41
72157;BME280;60035;52.122;5.406;2023-01-15T08:39:22;99980.00;;;4.89;85.39
72157;BME280;60035;52.122;5.406;2023-01-15T08:41:48;99973.91;;;4.97;84.36
72157;BME280;60035;52.122;5.406;2023-01-15T08:44:15;99966.13;;;5.07;84.30
72157;BME280;60035;52.122;5.406;2023-01-15T08:46:42;99953.28;;;5.13;84.09
72157;BME280;60035;52.122;5.406;2023-01-15T08:49:09;99952.19;;;5.25;83.62
72157;BME280;60035;52.122;5.406;2023-01-15T08:51:36;99957.91;;;5.33;83.71
72157;BME280;60035;52.122;5.406;2023-01-15T08:54:02;99955.31;;;5.36;83.50
72157;BME280;60035;52.122;5.406;2023-01-15T08:56:29;99935.06;;;5.34;83.46
72157;BME280;60035;52.122;5.406;2023-01-15T08:58:55;99940.88;;;5.38;83.54
72157;BME280;60035;52.122;5.406;2023-01-15T09:01:22;99960.97;;;5.47;83.90
72157;BME280;60035;52.122;5.406;2023-01-15T09:03:48;99968.34;;;5.58;83.62
72157;BME280;60035;52.122;5.406;2023-01-15T09:06:15;99945.47;;;5.60;83.23
72157;BME280;60035;52.122;5.406;2023-01-15T09:08:41;99948.81;;;5.62;83.48
72157;BME280;60035;52.122;5.406;2023-01-15T09:11:08;99954.59;;;5.67;83.81
72157;BME280;60035;52.122;5.406;2023-01-15T09:13:35;99955.34;;;5.72;83.22
72157;BME280;60035;52.122;5.406;2023-01-15T09:16:03;99967.97;;;5.75;83.08
72157;BME280;60035;52.122;5.406;2023-01-15T09:18:31;99952.72;;;5.75;83.09
72157;BME280;60035;52.122;5.406;2023-01-15T09:20:58;99961.19;;;5.76;83.11
72157;BME280;60035;52.122;5.406;2023-01-15T09:23:24;99964.41;;;5.82;83.13
72157;BME280;60035;52.122;5.406;2023-01-15T09:25:53;99970.13;;;5.91;82.89
72157;BME280;60035;52.122;5.406;2023-01-15T09:28:20;99958.97;;;5.98;83.03
72157;BME280;60035;52.122;5.406;2023-01-15T09:30:47;99952.06;;;6.05;82.10
72157;BME280;60035;52.122;5.406;2023-01-15T09:33:14;99953.44;;;6.16;82.20
72157;BME280;60035;52.122;5.406;2023-01-15T09:35:41;99953.22;;;6.26;81.14
72157;BME280;60035;52.122;5.406;2023-01-15T09:38:12;99954.78;;;6.30;80.95
72157;BME280;60035;52.122;5.406;2023-01-15T09:40:47;99957.16;;;6.36;80.93
72157;BME280;60035;52.122;5.406;2023-01-15T09:43:45;99951.25;;;6.36;80.90
72157;BME280;60035;52.122;5.406;2023-01-15T09:46:22;99963.13;;;6.35;80.35
72157;BME280;60035;52.122;5.406;2023-01-15T09:55:02;99947.03;;;6.34;80.05
72157;BME280;60035;52.122;5.406;2023-01-15T09:57:31;99950.44;;;6.35;80.63
72157;BME280;60035;52.122;5.406;2023-01-15T09:59:58;99963.19;;;6.32;79.46
72157;BME280;60035;52.122;5.406;2023-01-15T10:02:43;99947.13;;;6.31;79.91
72157;BME280;60035;52.122;5.406;2023-01-15T10:05:34;99962.44;;;6.30;79.91
72157;BME280;60035;52.122;5.406;2023-01-15T10:08:13;99952.97;;;6.35;80.06
72157;BME280;60035;52.122;5.406;2023-01-15T10:10:45;99949.31;;;6.44;79.45
72157;BME280;60035;52.122;5.406;2023-01-15T10:13:38;99956.41;;;6.65;79.58
72157;BME280;60035;52.122;5.406;2023-01-15T10:16:08;99951.56;;;6.86;78.32
72157;BME280;60035;52.122;5.406;2023-01-15T10:18:36;99951.28;;;6.95;78.50
72157;BME280;60035;52.122;5.406;2023-01-15T10:24:28;99940.81;;;7.34;77.37
72157;BME280;60035;52.122;5.406;2023-01-15T10:27:02;99949.50;;;7.56;76.55
72157;BME280;60035;52.122;5.406;2023-01-15T10:29:47;99951.47;;;7.74;76.84
72157;BME280;60035;52.122;5.406;2023-01-15T10:35:04;99936.88;;;7.78;75.71
72157;BME280;60035;52.122;5.406;2023-01-15T10:37:45;99966.34;;;7.60;74.83
72157;BME280;60035;52.122;5.406;2023-01-15T10:43:24;99964.72;;;7.29;76.61
72157;BME280;60035;52.122;5.406;2023-01-15T10:46:02;99956.81;;;7.10;76.04
72157;BME280;60035;52.122;5.406;2023-01-15T10:48:48;99972.31;;;7.02;76.49
72157;BME280;60035;52.122;5.406;2023-01-15T10:54:11;99983.78;;;7.17;77.00
72157;BME280;60035;52.122;5.406;2023-01-15T10:56:40;99986.22;;;7.20;75.66
72157;BME280;60035;52.122;5.406;2023-01-15T10:59:19;99980.47;;;7.13;75.37
72157;BME280;60035;52.122;5.406;2023-01-15T11:01:50;99986.41;;;7.14;75.95
72157;BME280;60035;52.122;5.406;2023-01-15T11:04:18;99965.97;;;7.15;75.19
72157;BME280;60035;52.122;5.406;2023-01-15T11:06:44;99990.47;;;7.20;75.02
72157;BME280;60035;52.122;5.406;2023-01-15T11:09:19;99969.00;;;7.28;75.47
72157;BME280;60035;52.122;5.406;2023-01-15T11:11:54;99976.69;;;7.27;74.85
72157;BME280;60035;52.122;5.406;2023-01-15T11:14:43;99981.88;;;7.24;75.11
72157;BME280;60035;52.122;5.406;2023-01-15T11:17:37;99997.28;;;7.19;75.00
72157;BME280;60035;52.122;5.406;2023-01-15T11:23:08;99983.06;;;7.12;75.71
72157;BME280;60035;52.122;5.406;2023-01-15T11:25:35;99964.47;;;7.10;76.00
72157;BME280;60035;52.122;5.406;2023-01-15T11:28:06;99973.81;;;7.09;75.73
72157;BME280;60035;52.122;5.406;2023-01-15T11:30:36;99977.28;;;7.07;76.40
72157;BME280;60035;52.122;5.406;2023-01-15T11:33:04;99979.78;;;7.08;76.49
72157;BME280;60035;52.122;5.406;2023-01-15T11:35:32;99985.69;;;7.09;76.95
72157;BME280;60035;52.122;5.406;2023-01-15T11:38:03;99979.91;;;7.04;77.61
72157;BME280;60035;52.122;5.406;2023-01-15T11:40:31;99979.19;;;6.98;77.94
72157;BME280;60035;52.122;5.406;2023-01-15T11:42:58;99994.44;;;7.00;78.33
72157;BME280;60035;52.122;5.406;2023-01-15T11:45:47;99981.88;;;6.94;77.62
72157;BME280;60035;52.122;5.406;2023-01-15T11:48:42;99983.72;;;6.89;78.57
72157;BME280;60035;52.122;5.406;2023-01-15T11:51:30;99967.59;;;6.90;79.31
72157;BME280;60035;52.122;5.406;2023-01-15T11:54:02;99972.78;;;6.87;79.25
72157;BME280;60035;52.122;5.406;2023-01-15T11:56:32;99979.75;;;6.78;79.52
72157;BME280;60035;52.122;5.406;2023-01-15T11:59:02;99983.88;;;6.84;79.40
72157;BME280;60035;52.122;5.406;2023-01-15T12:01:35;99969.31;;;6.88;79.44
72157;BME280;60035;52.122;5.406;2023-01-15T12:07:12;99966.06;;;6.82;80.29
72157;BME280;60035;52.122;5.406;2023-01-15T12:15:39;99959.06;;;6.91;81.22
72157;BME280;60035;52.122;5.406;2023-01-15T12:20:53;99970.50;;;6.76;83.39
72157;BME280;60035;52.122;5.406;2023-01-15T12:23:40;99965.66;;;6.66;84.31
72157;BME280;60035;52.122;5.406;2023-01-15T12:26:22;99986.31;;;6.56;85.68
72157;BME280;60035;52.122;5.406;2023-01-15T12:31:57;99985.72;;;6.13;89.40
72157;BME280;60035;52.122;5.406;2023-01-15T12:34:39;99988.47;;;6.05;90.85
72157;BME280;60035;52.122;5.406;2023-01-15T12:37:16;99977.47;;;6.03;92.26
72157;BME280;60035;52.122;5.406;2023-01-15T12:42:40;99969.97;;;5.98;93.25
72157;BME280;60035;52.122;5.406;2023-01-15T12:45:38;99982.66;;;6.00;93.81
72157;BME280;60035;52.122;5.406;2023-01-15T12:48:21;99976.75;;;5.96;93.38
72157;BME280;60035;52.122;5.406;2023-01-15T12:50:55;99983.66;;;5.93;94.03
72157;BME280;60035;52.122;5.406;2023-01-15T12:55:56;99967.78;;;5.83;95.17
72157;BME280;60035;52.122;5.406;2023-01-15T12:58:36;99973.72;;;5.83;95.94
72157;BME280;60035;52.122;5.406;2023-01-15T13:01:30;99986.41;;;5.83;95.55
72157;BME280;60035;52.122;5.406;2023-01-15T13:06:42;99985.53;;;5.84;96.50
72157;BME280;60035;52.122;5.406;2023-01-15T13:12:01;99991.31;;;5.90;96.92
72157;BME280;60035;52.122;5.406;2023-01-15T13:14:27;99994.69;;;5.92;96.63
72157;BME280;60035;52.122;5.406;2023-01-15T13:17:26;99992.06;;;5.95;96.71
72157;BME280;60035;52.122;5.406;2023-01-15T13:26:11;99984.19;;;6.06;95.81
72157;BME280;60035;52.122;5.406;2023-01-15T13:31:30;100001.88;;;6.10;95.39
72157;BME280;60035;52.122;5.406;2023-01-15T13:34:28;99988.31;;;6.11;95.05
72157;BME280;60035;52.122;5.406;2023-01-15T13:37:02;99995.03;;;6.12;93.89
72157;BME280;60035;52.122;5.406;2023-01-15T13:39:42;99988.22;;;6.14;93.71
72157;BME280;60035;52.122;5.406;2023-01-15T13:42:23;100009.31;;;6.18;93.77
72157;BME280;60035;52.122;5.406;2023-01-15T13:47:44;100007.50;;;6.23;93.62
72157;BME280;60035;52.122;5.406;2023-01-15T13:50:14;100003.25;;;6.24;93.88
72157;BME280;60035;52.122;5.406;2023-01-15T13:52:42;100008.28;;;6.25;93.72
72157;BME280;60035;52.122;5.406;2023-01-15T13:55:29;100007.41;;;6.26;94.27
72157;BME280;60035;52.122;5.406;2023-01-15T13:57:57;100021.00;;;6.25;94.11
72157;BME280;60035;52.122;5.406;2023-01-15T14:00:31;100013.50;;;6.19;94.71
72157;BME280;60035;52.122;5.406;2023-01-15T14:03:21;100019.53;;;6.15;95.32
72157;BME280;60035;52.122;5.406;2023-01-15T14:05:56;100010.28;;;6.14;95.75
72157;BME280;60035;52.122;5.406;2023-01-15T14:08:36;100015.38;;;6.12;96.47
72157;BME280;60035;52.122;5.406;2023-01-15T14:11:02;100015.47;;;6.09;96.79
72157;BME280;60035;52.122;5.406;2023-01-15T14:19:25;100020.59;;;6.08;97.88
72157;BME280;60035;52.122;5.406;2023-01-15T14:27:47;100052.94;;;6.01;98.15
72157;BME280;60035;52.122;5.406;2023-01-15T14:32:52;100034.34;;;5.99;98.12
72157;BME280;60035;52.122;5.406;2023-01-15T14:35:23;100035.94;;;5.65;97.79
72157;BME280;60035;52.122;5.406;2023-01-15T14:38:05;100031.88;;;5.17;97.52
72157;BME280;60035;52.122;5.406;2023-01-15T14:40:34;100048.31;;;4.98;98.54
72157;BME280;60035;52.122;5.406;2023-01-15T14:43:09;100039.03;;;4.97;99.92
72157;BME280;60035;52.122;5.406;2023-01-15T14:45:43;100053.34;;;4.99;100.00
72157;BME280;60035;52.122;5.406;2023-01-15T14:50:44;100057.13;;;5.22;100.00
72157;BME280;60035;52.122;5.406;2023-01-15T14:58:38;100054.09;;;5.47;100.00
72157;BME280;60035;52.122;5.406;2023-01-15T15:01:22;100065.00;;;5.52;100.00
72157;BME280;60035;52.122;5.406;2023-01-15T15:04:02;100058.88;;;5.61;100.00
72157;BME280;60035;52.122;5.406;2023-01-15T15:06:36;100067.22;;;5.66;100.00
72157;BME280;60035;52.122;5.406;2023-01-15T15:09:10;100072.25;;;5.69;100.00
72157;BME280;60035;52.122;5.406;2023-01-15T15:11:45;100075.63;;;5.70;100.00
72157;BME280;60035;52.122;5.406;2023-01-15T15:14:35;100075.59;;;5.71;100.00